sensor_id;sensor_type;location;lat;lon;timestamp;temperature;humidity
66190;DHT22;52992;52.084;5.412;2024-03-08T00:00:11;7.90;58.20
66190;DHT22;52992;52.084;5.412;2024-03-08T00:02:42;7.90;58.20
66190;DHT22;52992;52.084;5.412;2024-03-08T00:05:09;7.80;58.00
66190;DHT22;52992;52.084;5.412;2024-03-08T00:07:40;7.80;58.00
66190;DHT22;52992;52.084;5.412;2024-03-08T00:10:09;7.80;58.10
66190;DHT22;52992;52.084;5.412;2024-03-08T00:12:45;7.70;58.30
66190;DHT22;52992;52.084;5.412;2024-03-08T00:15:17;7.70;58.40
66190;DHT22;52992;52.084;5.412;2024-03-08T00:17:46;7.70;58.30
66190;DHT22;52992;52.084;5.412;2024-03-08T00:20:17;7.70;58.20
66190;DHT22;52992;52.084;5.412;2024-03-08T00:22:47;7.60;58.10
66190;DHT22;52992;52.084;5.412;2024-03-08T00:25:14;7.60;59.00
66190;DHT22;52992;52.084;5.412;2024-03-08T00:27:42;7.60;58.30
66190;DHT22;52992;52.084;5.412;2024-03-08T00:30:09;7.70;58.30
66190;DHT22;52992;52.084;5.412;2024-03-08T00:32:37;7.70;58.30
66190;DHT22;52992;52.084;5.412;2024-03-08T00:35:05;7.70;58.30
66190;DHT22;52992;52.084;5.412;2024-03-08T00:37:34;7.70;58.10
66190;DHT22;52992;52.084;5.412;2024-03-08T00:40:02;7.70;58.10
66190;DHT22;52992;52.084;5.412;2024-03-08T00:42:29;7.70;58.00
66190;DHT22;52992;52.084;5.412;2024-03-08T00:44:56;7.70;57.90
66190;DHT22;52992;52.084;5.412;2024-03-08T00:47:25;7.70;57.80
66190;DHT22;52992;52.084;5.412;2024-03-08T00:49:52;7.60;57.80
66190;DHT22;52992;52.084;5.412;2024-03-08T00:52:19;7.60;57.90
66190;DHT22;52992;52.084;5.412;2024-03-08T00:54:46;7.60;58.10
66190;DHT22;52992;52.084;5.412;2024-03-08T00:57:13;7.50;58.10
66190;DHT22;52992;52.084;5.412;2024-03-08T00:59:40;7.50;58.10
66190;DHT22;52992;52.084;5.412;2024-03-08T01:02:07;7.50;58.20
66190;DHT22;52992;52.084;5.412;2024-03-08T01:04:37;7.30;58.30
66190;DHT22;52992;52.084;5.412;2024-03-08T01:07:04;7.40;58.20
66190;DHT22;52992;52.084;5.412;2024-03-08T01:09:32;7.40;58.20
66190;DHT22;52992;52.084;5.412;2024-03-08T01:11:59;7.40;58.10
66190;DHT22;52992;52.084;5.412;2024-03-08T01:14:26;7.40;58.10
66190;DHT22;52992;52.084;5.412;2024-03-08T01:16:53;7.40;58.10
66190;DHT22;52992;52.084;5.412;2024-03-08T01:19:21;7.40;58.20
66190;DHT22;52992;52.084;5.412;2024-03-08T01:21:48;7.40;58.10
66190;DHT22;52992;52.084;5.412;2024-03-08T01:24:15;7.40;58.00
66190;DHT22;52992;52.084;5.412;2024-03-08T01:26:42;7.40;58.00
66190;DHT22;52992;52.084;5.412;2024-03-08T01:29:09;7.40;57.90
66190;DHT22;52992;52.084;5.412;2024-03-08T01:31:36;7.40;58.00
66190;DHT22;52992;52.084;5.412;2024-03-08T01:34:03;7.30;57.80
66190;DHT22;52992;52.084;5.412;2024-03-08T01:36:30;7.30;57.80
66190;DHT22;52992;52.084;5.412;2024-03-08T01:38:57;7.30;57.80
66190;DHT22;52992;52.084;5.412;2024-03-08T01:41:24;7.20;57.70
66190;DHT22;52992;52.084;5.412;2024-03-08T01:43:51;7.20;57.90
66190;DHT22;52992;52.084;5.412;2024-03-08T01:46:20;7.20;57.90
66190;DHT22;52992;52.084;5.412;2024-03-08T01:48:49;7.20;57.90
66190;DHT22;52992;52.084;5.412;2024-03-08T01:51:19;7.20;57.80
66190;DHT22;52992;52.084;5.412;2024-03-08T01:53:46;7.20;57.70
66190;DHT22;52992;52.084;5.412;2024-03-08T01:56:15;7.20;57.80
66190;DHT22;52992;52.084;5.412;2024-03-08T01:58:42;7.10;57.80
66190;DHT22;52992;52.084;5.412;2024-03-08T02:01:13;7.10;57.80
66190;DHT22;52992;52.084;5.412;2024-03-08T02:03:44;7.10;57.70
66190;DHT22;52992;52.084;5.412;2024-03-08T02:06:12;7.10;57.80
66190;DHT22;52992;52.084;5.412;2024-03-08T02:08:45;7.10;57.80
66190;DHT22;52992;52.084;5.412;2024-03-08T02:11:14;7.10;57.80
66190;DHT22;52992;52.084;5.412;2024-03-08T02:13:41;7.10;57.90
66190;DHT22;52992;52.084;5.412;2024-03-08T02:16:08;7.00;57.90
66190;DHT22;52992;52.084;5.412;2024-03-08T02:18:36;7.00;57.90
66190;DHT22;52992;52.084;5.412;2024-03-08T02:21:07;7.10;58.00
66190;DHT22;52992;52.084;5.412;2024-03-08T02:23:35;7.10;58.20
66190;DHT22;52992;52.084;5.412;2024-03-08T02:26:04;7.00;57.90
66190;DHT22;52992;52.084;5.412;2024-03-08T02:28:31;7.00;57.90
66190;DHT22;52992;52.084;5.412;2024-03-08T02:30:59;7.00;57.90
66190;DHT22;52992;52.084;5.412;2024-03-08T02:33:27;7.00;57.80
66190;DHT22;52992;52.084;5.412;2024-03-08T02:35:55;7.00;57.80
66190;DHT22;52992;52.084;5.412;2024-03-08T02:38:24;6.90;57.70
66190;DHT22;52992;52.084;5.412;2024-03-08T02:40:53;6.90;57.60
66190;DHT22;52992;52.084;5.412;2024-03-08T02:43:22;6.90;57.60
66190;DHT22;52992;52.084;5.412;2024-03-08T02:45:52;6.90;57.50
66190;DHT22;52992;52.084;5.412;2024-03-08T02:48:22;6.90;57.50
66190;DHT22;52992;52.084;5.412;2024-03-08T02:50:49;6.80;57.20
66190;DHT22;52992;52.084;5.412;2024-03-08T02:53:18;6.80;57.20
66190;DHT22;52992;52.084;5.412;2024-03-08T02:55:46;6.80;57.20
66190;DHT22;52992;52.084;5.412;2024-03-08T02:58:13;6.70;57.20
66190;DHT22;52992;52.084;5.412;2024-03-08T03:00:41;6.70;57.20
66190;DHT22;52992;52.084;5.412;2024-03-08T03:03:11;6.70;57.30
66190;DHT22;52992;52.084;5.412;2024-03-08T03:05:39;6.70;57.20
66190;DHT22;52992;52.084;5.412;2024-03-08T03:08:14;6.70;57.10
66190;DHT22;52992;52.084;5.412;2024-03-08T03:10:44;6.60;56.90
66190;DHT22;52992;52.084;5.412;2024-03-08T03:13:11;6.60;57.00
66190;DHT22;52992;52.084;5.412;2024-03-08T03:15:38;6.60;57.00
66190;DHT22;52992;52.084;5.412;2024-03-08T03:18:08;6.60;56.90
66190;DHT22;52992;52.084;5.412;2024-03-08T03:20:36;6.60;56.80
66190;DHT22;52992;52.084;5.412;2024-03-08T03:23:09;6.60;56.80
66190;DHT22;52992;52.084;5.412;2024-03-08T03:25:36;6.50;56.70
66190;DHT22;52992;52.084;5.412;2024-03-08T03:28:05;6.50;56.90
66190;DHT22;52992;52.084;5.412;2024-03-08T03:30:35;6.50;57.00
66190;DHT22;52992;52.084;5.412;2024-03-08T03:33:02;6.50;57.00
66190;DHT22;52992;52.084;5.412;2024-03-08T03:35:34;6.40;57.00
66190;DHT22;52992;52.084;5.412;2024-03-08T03:38:03;6.50;57.10
66190;DHT22;52992;52.084;5.412;2024-03-08T03:40:39;6.50;57.20
66190;DHT22;52992;52.084;5.412;2024-03-08T03:43:08;6.40;57.70
66190;DHT22;52992;52.084;5.412;2024-03-08T03:45:39;6.30;56.90
66190;DHT22;52992;52.084;5.412;2024-03-08T03:48:08;6.30;57.20
66190;DHT22;52992;52.084;5.412;2024-03-08T03:50:38;6.30;57.30
66190;DHT22;52992;52.084;5.412;2024-03-08T03:53:07;6.30;57.40
66190;DHT22;52992;52.084;5.412;2024-03-08T03:55:36;6.30;57.50
66190;DHT22;52992;52.084;5.412;2024-03-08T03:58:06;6.20;57.20
66190;DHT22;52992;52.084;5.412;2024-03-08T04:00:33;6.20;57.30
66190;DHT22;52992;52.084;5.412;2024-03-08T04:03:00;6.20;57.30
66190;DHT22;52992;52.084;5.412;2024-03-08T04:05:28;6.10;57.30
66190;DHT22;52992;52.084;5.412;2024-03-08T04:07:57;6.10;57.70
66190;DHT22;52992;52.084;5.412;2024-03-08T04:10:24;6.10;57.70
66190;DHT22;52992;52.084;5.412;2024-03-08T04:12:51;6.00;57.30
66190;DHT22;52992;52.084;5.412;2024-03-08T04:15:19;6.00;57.40
66190;DHT22;52992;52.084;5.412;2024-03-08T04:17:47;6.00;57.60
66190;DHT22;52992;52.084;5.412;2024-03-08T04:20:14;6.00;57.30
66190;DHT22;52992;52.084;5.412;2024-03-08T04:22:42;5.90;57.30
66190;DHT22;52992;52.084;5.412;2024-03-08T04:25:11;5.90;57.50
66190;DHT22;52992;52.084;5.412;2024-03-08T04:27:38;5.90;57.50
66190;DHT22;52992;52.084;5.412;2024-03-08T04:30:06;5.90;57.50
66190;DHT22;52992;52.084;5.412;2024-03-08T04:32:36;5.90;57.20
66190;DHT22;52992;52.084;5.412;2024-03-08T04:35:05;6.00;57.40
66190;DHT22;52992;52.084;5.412;2024-03-08T04:37:32;5.90;57.30
66190;DHT22;52992;52.084;5.412;2024-03-08T04:39:59;5.90;57.40
66190;DHT22;52992;52.084;5.412;2024-03-08T04:42:27;5.90;57.30
66190;DHT22;52992;52.084;5.412;2024-03-08T04:44:56;5.90;57.10
66190;DHT22;52992;52.084;5.412;2024-03-08T04:47:24;5.90;57.20
66190;DHT22;52992;52.084;5.412;2024-03-08T04:49:52;5.80;56.80
66190;DHT22;52992;52.084;5.412;2024-03-08T04:52:19;5.80;57.10
66190;DHT22;52992;52.084;5.412;2024-03-08T04:54:46;5.80;57.10
66190;DHT22;52992;52.084;5.412;2024-03-08T04:57:14;5.80;57.00
66190;DHT22;52992;52.084;5.412;2024-03-08T04:59:41;5.90;57.10
66190;DHT22;52992;52.084;5.412;2024-03-08T05:02:08;5.80;57.00
66190;DHT22;52992;52.084;5.412;2024-03-08T05:04:35;5.80;57.00
66190;DHT22;52992;52.084;5.412;2024-03-08T05:07:02;5.70;56.90
66190;DHT22;52992;52.084;5.412;2024-03-08T05:09:30;5.70;57.00
66190;DHT22;52992;52.084;5.412;2024-03-08T05:11:59;5.70;56.70
66190;DHT22;52992;52.084;5.412;2024-03-08T05:14:26;5.70;57.00
66190;DHT22;52992;52.084;5.412;2024-03-08T05:16:53;5.70;56.80
66190;DHT22;52992;52.084;5.412;2024-03-08T05:19:20;5.70;56.80
66190;DHT22;52992;52.084;5.412;2024-03-08T05:21:49;5.70;56.80
66190;DHT22;52992;52.084;5.412;2024-03-08T05:24:17;5.70;56.80
66190;DHT22;52992;52.084;5.412;2024-03-08T05:26:46;5.70;57.60
66190;DHT22;52992;52.084;5.412;2024-03-08T05:29:13;5.70;56.90
66190;DHT22;52992;52.084;5.412;2024-03-08T05:31:51;5.70;56.90
66190;DHT22;52992;52.084;5.412;2024-03-08T05:34:21;5.70;56.80
66190;DHT22;52992;52.084;5.412;2024-03-08T05:36:49;5.70;56.70
66190;DHT22;52992;52.084;5.412;2024-03-08T05:39:18;5.70;56.70
66190;DHT22;52992;52.084;5.412;2024-03-08T05:41:45;5.60;56.40
66190;DHT22;52992;52.084;5.412;2024-03-08T05:44:13;5.60;56.60
66190;DHT22;52992;52.084;5.412;2024-03-08T05:46:40;5.60;56.40
66190;DHT22;52992;52.084;5.412;2024-03-08T05:49:09;5.60;56.30
66190;DHT22;52992;52.084;5.412;2024-03-08T05:51:39;5.70;56.50
66190;DHT22;52992;52.084;5.412;2024-03-08T05:54:08;5.60;56.40
66190;DHT22;52992;52.084;5.412;2024-03-08T05:56:42;5.60;56.10
66190;DHT22;52992;52.084;5.412;2024-03-08T05:59:11;5.60;56.20
66190;DHT22;52992;52.084;5.412;2024-03-08T06:01:38;5.60;56.20
66190;DHT22;52992;52.084;5.412;2024-03-08T06:04:08;5.70;56.30
66190;DHT22;52992;52.084;5.412;2024-03-08T06:06:36;5.70;56.10
66190;DHT22;52992;52.084;5.412;2024-03-08T06:09:05;5.70;56.10
66190;DHT22;52992;52.084;5.412;2024-03-08T06:11:39;5.70;56.10
66190;DHT22;52992;52.084;5.412;2024-03-08T06:14:06;5.70;56.10
66190;DHT22;52992;52.084;5.412;2024-03-08T06:16:34;5.70;56.00
66190;DHT22;52992;52.084;5.412;2024-03-08T06:19:03;5.70;56.00
66190;DHT22;52992;52.084;5.412;2024-03-08T06:21:30;5.70;56.00
66190;DHT22;52992;52.084;5.412;2024-03-08T06:23:58;5.70;55.90
66190;DHT22;52992;52.084;5.412;2024-03-08T06:26:25;5.80;55.90
66190;DHT22;52992;52.084;5.412;2024-03-08T06:28:57;5.80;55.70
66190;DHT22;52992;52.084;5.412;2024-03-08T06:31:28;5.80;55.70
66190;DHT22;52992;52.084;5.412;2024-03-08T06:33:54;5.80;55.60
66190;DHT22;52992;52.084;5.412;2024-03-08T06:36:23;5.90;55.60
66190;DHT22;52992;52.084;5.412;2024-03-08T06:38:51;5.90;55.30
66190;DHT22;52992;52.084;5.412;2024-03-08T06:41:18;5.90;55.30
66190;DHT22;52992;52.084;5.412;2024-03-08T06:43:46;5.90;55.40
66190;DHT22;52992;52.084;5.412;2024-03-08T06:46:17;5.90;55.40
66190;DHT22;52992;52.084;5.412;2024-03-08T06:48:44;6.00;55.10
66190;DHT22;52992;52.084;5.412;2024-03-08T06:51:13;6.00;55.00
66190;DHT22;52992;52.084;5.412;2024-03-08T06:53:41;6.00;55.00
66190;DHT22;52992;52.084;5.412;2024-03-08T06:56:08;5.90;55.00
66190;DHT22;52992;52.084;5.412;2024-03-08T06:58:35;6.00;54.80
66190;DHT22;52992;52.084;5.412;2024-03-08T07:01:03;6.10;55.00
66190;DHT22;52992;52.084;5.412;2024-03-08T07:03:34;6.10;54.80
66190;DHT22;52992;52.084;5.412;2024-03-08T07:06:01;6.20;54.50
66190;DHT22;52992;52.084;5.412;2024-03-08T07:08:30;6.30;54.50
66190;DHT22;52992;52.084;5.412;2024-03-08T07:10:57;6.40;54.20
66190;DHT22;52992;52.084;5.412;2024-03-08T07:13:26;6.70;53.50
66190;DHT22;52992;52.084;5.412;2024-03-08T07:15:55;7.20;51.90
66190;DHT22;52992;52.084;5.412;2024-03-08T07:18:22;7.70;50.80
66190;DHT22;52992;52.084;5.412;2024-03-08T07:20:49;8.10;49.30
66190;DHT22;52992;52.084;5.412;2024-03-08T07:23:16;8.40;48.60
66190;DHT22;52992;52.084;5.412;2024-03-08T07:26:04;8.70;47.10
66190;DHT22;52992;52.084;5.412;2024-03-08T07:28:31;8.80;46.40
66190;DHT22;52992;52.084;5.412;2024-03-08T07:30:58;9.00;45.70
66190;DHT22;52992;52.084;5.412;2024-03-08T07:33:44;9.20;45.90
66190;DHT22;52992;52.084;5.412;2024-03-08T07:36:11;9.30;45.40
66190;DHT22;52992;52.084;5.412;2024-03-08T07:38:38;9.40;45.60
66190;DHT22;52992;52.084;5.412;2024-03-08T07:41:05;9.70;45.10
66190;DHT22;52992;52.084;5.412;2024-03-08T07:43:32;9.90;44.80
66190;DHT22;52992;52.084;5.412;2024-03-08T07:45:59;10.10;43.50
66190;DHT22;52992;52.084;5.412;2024-03-08T07:48:27;10.30;43.00
66190;DHT22;52992;52.084;5.412;2024-03-08T07:50:54;10.50;42.30
66190;DHT22;52992;52.084;5.412;2024-03-08T07:53:22;10.80;41.30
66190;DHT22;52992;52.084;5.412;2024-03-08T07:55:51;11.00;39.80
66190;DHT22;52992;52.084;5.412;2024-03-08T07:58:18;11.00;39.70
66190;DHT22;52992;52.084;5.412;2024-03-08T08:00:45;11.10;40.10
66190;DHT22;52992;52.084;5.412;2024-03-08T08:03:12;11.30;39.50
66190;DHT22;52992;52.084;5.412;2024-03-08T08:05:40;11.80;38.40
66190;DHT22;52992;52.084;5.412;2024-03-08T08:08:10;12.30;37.30
66190;DHT22;52992;52.084;5.412;2024-03-08T08:10:38;13.00;35.80
66190;DHT22;52992;52.084;5.412;2024-03-08T08:13:06;13.40;33.20
66190;DHT22;52992;52.084;5.412;2024-03-08T08:15:33;13.50;32.90
66190;DHT22;52992;52.084;5.412;2024-03-08T08:18:02;13.90;33.10
66190;DHT22;52992;52.084;5.412;2024-03-08T08:20:33;14.40;32.20
66190;DHT22;52992;52.084;5.412;2024-03-08T08:23:00;14.80;31.40
66190;DHT22;52992;52.084;5.412;2024-03-08T08:25:27;14.70;30.80
66190;DHT22;52992;52.084;5.412;2024-03-08T08:27:54;13.50;33.00
66190;DHT22;52992;52.084;5.412;2024-03-08T08:30:21;12.30;35.80
66190;DHT22;52992;52.084;5.412;2024-03-08T08:32:49;11.40;37.60
66190;DHT22;52992;52.084;5.412;2024-03-08T08:35:16;10.80;39.00
66190;DHT22;52992;52.084;5.412;2024-03-08T08:37:45;10.40;39.90
66190;DHT22;52992;52.084;5.412;2024-03-08T08:40:12;10.00;41.20
66190;DHT22;52992;52.084;5.412;2024-03-08T08:42:44;9.80;42.10
66190;DHT22;52992;52.084;5.412;2024-03-08T08:45:15;9.60;42.80
66190;DHT22;52992;52.084;5.412;2024-03-08T08:47:49;9.50;43.20
66190;DHT22;52992;52.084;5.412;2024-03-08T08:50:16;9.40;43.50
66190;DHT22;52992;52.084;5.412;2024-03-08T08:52:49;9.30;43.60
66190;DHT22;52992;52.084;5.412;2024-03-08T08:55:16;9.20;44.10
66190;DHT22;52992;52.084;5.412;2024-03-08T08:57:47;9.30;44.40
66190;DHT22;52992;52.084;5.412;2024-03-08T09:00:14;9.20;44.10
66190;DHT22;52992;52.084;5.412;2024-03-08T09:02:42;9.30;44.40
66190;DHT22;52992;52.084;5.412;2024-03-08T09:05:10;9.40;44.50
66190;DHT22;52992;52.084;5.412;2024-03-08T09:07:38;9.50;44.00
66190;DHT22;52992;52.084;5.412;2024-03-08T09:10:05;9.60;43.80
66190;DHT22;52992;52.084;5.412;2024-03-08T09:12:44;9.70;42.90
66190;DHT22;52992;52.084;5.412;2024-03-08T09:15:11;9.80;42.90
66190;DHT22;52992;52.084;5.412;2024-03-08T09:17:42;9.90;42.70
66190;DHT22;52992;52.084;5.412;2024-03-08T09:20:11;10.10;42.30
66190;DHT22;52992;52.084;5.412;2024-03-08T09:22:45;10.40;41.50
66190;DHT22;52992;52.084;5.412;2024-03-08T09:25:13;10.50;41.60
66190;DHT22;52992;52.084;5.412;2024-03-08T09:27:40;10.60;41.70
66190;DHT22;52992;52.084;5.412;2024-03-08T09:30:08;10.80;40.30
66190;DHT22;52992;52.084;5.412;2024-03-08T09:32:35;11.40;38.80
66190;DHT22;52992;52.084;5.412;2024-03-08T09:35:04;12.40;35.70
66190;DHT22;52992;52.084;5.412;2024-03-08T09:37:34;13.60;33.10
66190;DHT22;52992;52.084;5.412;2024-03-08T09:40:01;14.80;29.90
66190;DHT22;52992;52.084;5.412;2024-03-08T09:42:31;16.20;27.90
66190;DHT22;52992;52.084;5.412;2024-03-08T09:44:58;17.10;26.90
66190;DHT22;52992;52.084;5.412;2024-03-08T09:47:27;17.80;25.70
66190;DHT22;52992;52.084;5.412;2024-03-08T09:50:00;18.60;24.30
66190;DHT22;52992;52.084;5.412;2024-03-08T09:52:29;19.50;23.40
66190;DHT22;52992;52.084;5.412;2024-03-08T09:54:57;20.40;22.20
66190;DHT22;52992;52.084;5.412;2024-03-08T09:57:25;20.80;21.90
66190;DHT22;52992;52.084;5.412;2024-03-08T09:59:52;21.00;21.60
66190;DHT22;52992;52.084;5.412;2024-03-08T10:02:19;21.40;21.60
66190;DHT22;52992;52.084;5.412;2024-03-08T10:04:48;21.80;21.30
66190;DHT22;52992;52.084;5.412;2024-03-08T10:07:15;22.30;21.10
66190;DHT22;52992;52.084;5.412;2024-03-08T10:09:42;23.00;19.90
66190;DHT22;52992;52.084;5.412;2024-03-08T10:12:19;24.00;19.10
66190;DHT22;52992;52.084;5.412;2024-03-08T10:14:46;25.20;17.80
66190;DHT22;52992;52.084;5.412;2024-03-08T10:17:13;26.00;16.80
66190;DHT22;52992;52.084;5.412;2024-03-08T10:19:49;26.60;15.90
66190;DHT22;52992;52.084;5.412;2024-03-08T10:22:18;26.90;15.20
66190;DHT22;52992;52.084;5.412;2024-03-08T10:24:46;27.40;15.20
66190;DHT22;52992;52.084;5.412;2024-03-08T10:27:13;27.80;14.70
66190;DHT22;52992;52.084;5.412;2024-03-08T10:29:42;28.10;14.60
66190;DHT22;52992;52.084;5.412;2024-03-08T10:32:10;28.50;14.50
66190;DHT22;52992;52.084;5.412;2024-03-08T10:34:38;29.00;14.30
66190;DHT22;52992;52.084;5.412;2024-03-08T10:37:07;29.20;13.80
66190;DHT22;52992;52.084;5.412;2024-03-08T10:39:39;29.50;13.50
66190;DHT22;52992;52.084;5.412;2024-03-08T10:42:16;29.60;13.50
66190;DHT22;52992;52.084;5.412;2024-03-08T10:45:05;29.90;12.70
66190;DHT22;52992;52.084;5.412;2024-03-08T10:47:41;29.70;13.10
66190;DHT22;52992;52.084;5.412;2024-03-08T10:50:18;29.80;13.00
66190;DHT22;52992;52.084;5.412;2024-03-08T10:52:52;29.70;13.10
66190;DHT22;52992;52.084;5.412;2024-03-08T10:55:19;27.10;15.40
66190;DHT22;52992;52.084;5.412;2024-03-08T10:57:49;23.20;19.60
66190;DHT22;52992;52.084;5.412;2024-03-08T11:00:16;20.20;23.30
66190;DHT22;52992;52.084;5.412;2024-03-08T11:02:44;18.20;26.40
66190;DHT22;52992;52.084;5.412;2024-03-08T11:05:31;17.20;27.80
66190;DHT22;52992;52.084;5.412;2024-03-08T11:08:02;19.50;24.30
66190;DHT22;52992;52.084;5.412;2024-03-08T11:10:31;23.60;19.30
66190;DHT22;52992;52.084;5.412;2024-03-08T11:12:59;26.20;16.30
66190;DHT22;52992;52.084;5.412;2024-03-08T11:15:26;28.20;14.90
66190;DHT22;52992;52.084;5.412;2024-03-08T11:17:59;29.30;13.80
66190;DHT22;52992;52.084;5.412;2024-03-08T11:20:27;30.10;13.40
66190;DHT22;52992;52.084;5.412;2024-03-08T11:22:59;31.30;12.60
66190;DHT22;52992;52.084;5.412;2024-03-08T11:25:41;32.00;12.00
66190;DHT22;52992;52.084;5.412;2024-03-08T11:28:13;32.50;11.40
66190;DHT22;52992;52.084;5.412;2024-03-08T11:33:30;33.10;11.50
66190;DHT22;52992;52.084;5.412;2024-03-08T11:36:10;33.10;11.30
66190;DHT22;52992;52.084;5.412;2024-03-08T11:38:45;33.00;11.20
66190;DHT22;52992;52.084;5.412;2024-03-08T11:41:21;32.70;10.70
66190;DHT22;52992;52.084;5.412;2024-03-08T11:43:49;32.60;11.10
66190;DHT22;52992;52.084;5.412;2024-03-08T11:46:17;32.70;11.00
66190;DHT22;52992;52.084;5.412;2024-03-08T11:48:47;32.80;11.10
66190;DHT22;52992;52.084;5.412;2024-03-08T11:51:15;32.80;10.60
66190;DHT22;52992;52.084;5.412;2024-03-08T11:53:45;32.50;11.30
66190;DHT22;52992;52.084;5.412;2024-03-08T11:56:14;32.50;10.80
66190;DHT22;52992;52.084;5.412;2024-03-08T11:58:55;32.60;10.80
66190;DHT22;52992;52.084;5.412;2024-03-08T12:01:24;32.60;11.00
66190;DHT22;52992;52.084;5.412;2024-03-08T12:03:56;32.80;10.50
66190;DHT22;52992;52.084;5.412;2024-03-08T12:06:27;32.30;10.50
66190;DHT22;52992;52.084;5.412;2024-03-08T12:09:12;32.10;10.70
66190;DHT22;52992;52.084;5.412;2024-03-08T12:11:39;31.70;10.50
66190;DHT22;52992;52.084;5.412;2024-03-08T12:14:07;31.50;11.10
66190;DHT22;52992;52.084;5.412;2024-03-08T12:16:34;31.70;10.80
66190;DHT22;52992;52.084;5.412;2024-03-08T12:19:03;31.80;10.70
66190;DHT22;52992;52.084;5.412;2024-03-08T12:21:31;31.20;10.90
66190;DHT22;52992;52.084;5.412;2024-03-08T12:24:09;31.20;11.20
66190;DHT22;52992;52.084;5.412;2024-03-08T12:26:39;31.20;10.40
66190;DHT22;52992;52.084;5.412;2024-03-08T12:29:19;30.90;10.80
66190;DHT22;52992;52.084;5.412;2024-03-08T12:32:02;31.00;11.60
66190;DHT22;52992;52.084;5.412;2024-03-08T12:34:32;31.00;11.30
66190;DHT22;52992;52.084;5.412;2024-03-08T12:36:59;30.70;11.10
66190;DHT22;52992;52.084;5.412;2024-03-08T12:39:26;30.00;11.50
66190;DHT22;52992;52.084;5.412;2024-03-08T12:41:54;29.40;12.20
66190;DHT22;52992;52.084;5.412;2024-03-08T12:44:24;28.70;12.50
66190;DHT22;52992;52.084;5.412;2024-03-08T12:46:52;26.60;14.70
66190;DHT22;52992;52.084;5.412;2024-03-08T12:49:20;24.00;17.80
66190;DHT22;52992;52.084;5.412;2024-03-08T12:51:50;22.20;19.20
66190;DHT22;52992;52.084;5.412;2024-03-08T12:54:19;20.20;21.80
66190;DHT22;52992;52.084;5.412;2024-03-08T12:56:50;18.60;23.60
66190;DHT22;52992;52.084;5.412;2024-03-08T12:59:20;17.40;24.30
66190;DHT22;52992;52.084;5.412;2024-03-08T13:01:48;16.50;26.50
66190;DHT22;52992;52.084;5.412;2024-03-08T13:04:18;17.20;25.80
66190;DHT22;52992;52.084;5.412;2024-03-08T13:06:46;19.70;22.20
66190;DHT22;52992;52.084;5.412;2024-03-08T13:09:20;21.70;19.80
66190;DHT22;52992;52.084;5.412;2024-03-08T13:11:46;22.50;18.50
66190;DHT22;52992;52.084;5.412;2024-03-08T13:14:13;22.30;19.00
66190;DHT22;52992;52.084;5.412;2024-03-08T13:16:40;21.90;19.70
66190;DHT22;52992;52.084;5.412;2024-03-08T13:19:07;21.60;19.90
66190;DHT22;52992;52.084;5.412;2024-03-08T13:21:35;21.50;19.90
66190;DHT22;52992;52.084;5.412;2024-03-08T13:24:02;22.10;19.10
66190;DHT22;52992;52.084;5.412;2024-03-08T13:26:30;22.50;18.80
66190;DHT22;52992;52.084;5.412;2024-03-08T13:29:00;22.70;17.90
66190;DHT22;52992;52.084;5.412;2024-03-08T13:31:27;22.90;18.10
66190;DHT22;52992;52.084;5.412;2024-03-08T13:33:55;23.10;18.10
66190;DHT22;52992;52.084;5.412;2024-03-08T13:36:25;23.20;18.00
66190;DHT22;52992;52.084;5.412;2024-03-08T13:38:56;23.00;18.20
66190;DHT22;52992;52.084;5.412;2024-03-08T13:41:26;22.50;18.90
66190;DHT22;52992;52.084;5.412;2024-03-08T13:43:55;21.40;20.30
66190;DHT22;52992;52.084;5.412;2024-03-08T13:46:22;20.30;20.80
66190;DHT22;52992;52.084;5.412;2024-03-08T13:48:51;20.00;21.50
66190;DHT22;52992;52.084;5.412;2024-03-08T13:51:28;20.00;21.30
66190;DHT22;52992;52.084;5.412;2024-03-08T13:53:54;20.40;21.40
66190;DHT22;52992;52.084;5.412;2024-03-08T13:56:21;20.50;21.30
66190;DHT22;52992;52.084;5.412;2024-03-08T13:58:48;20.30;21.20
66190;DHT22;52992;52.084;5.412;2024-03-08T14:01:18;20.20;21.00
66190;DHT22;52992;52.084;5.412;2024-03-08T14:03:48;19.80;21.80
66190;DHT22;52992;52.084;5.412;2024-03-08T14:06:15;19.30;22.60
66190;DHT22;52992;52.084;5.412;2024-03-08T14:08:49;18.80;22.80
66190;DHT22;52992;52.084;5.412;2024-03-08T14:11:16;18.30;24.00
66190;DHT22;52992;52.084;5.412;2024-03-08T14:13:46;17.80;24.30
66190;DHT22;52992;52.084;5.412;2024-03-08T14:16:13;17.10;25.80
66190;DHT22;52992;52.084;5.412;2024-03-08T14:18:41;16.50;26.70
66190;DHT22;52992;52.084;5.412;2024-03-08T14:21:08;16.00;27.70
66190;DHT22;52992;52.084;5.412;2024-03-08T14:23:35;15.50;28.40
66190;DHT22;52992;52.084;5.412;2024-03-08T14:26:06;15.10;29.50
66190;DHT22;52992;52.084;5.412;2024-03-08T14:28:35;14.80;30.00
66190;DHT22;52992;52.084;5.412;2024-03-08T14:31:02;14.60;30.00
66190;DHT22;52992;52.084;5.412;2024-03-08T14:33:33;14.50;31.00
66190;DHT22;52992;52.084;5.412;2024-03-08T14:36:00;14.20;31.30
66190;DHT22;52992;52.084;5.412;2024-03-08T14:38:28;14.20;31.60
66190;DHT22;52992;52.084;5.412;2024-03-08T14:40:55;14.20;31.50
66190;DHT22;52992;52.084;5.412;2024-03-08T14:43:23;14.20;31.20
66190;DHT22;52992;52.084;5.412;2024-03-08T14:45:51;14.10;31.50
66190;DHT22;52992;52.084;5.412;2024-03-08T14:48:19;14.00;31.90
66190;DHT22;52992;52.084;5.412;2024-03-08T14:50:47;14.00;32.60
66190;DHT22;52992;52.084;5.412;2024-03-08T14:53:14;13.90;32.10
66190;DHT22;52992;52.084;5.412;2024-03-08T14:55:43;13.90;32.50
66190;DHT22;52992;52.084;5.412;2024-03-08T14:58:13;13.90;32.50
66190;DHT22;52992;52.084;5.412;2024-03-08T15:00:41;13.70;32.60
66190;DHT22;52992;52.084;5.412;2024-03-08T15:03:08;13.70;32.80
66190;DHT22;52992;52.084;5.412;2024-03-08T15:05:39;13.60;32.40
66190;DHT22;52992;52.084;5.412;2024-03-08T15:08:09;13.50;32.90
66190;DHT22;52992;52.084;5.412;2024-03-08T15:10:38;13.50;33.30
66190;DHT22;52992;52.084;5.412;2024-03-08T15:13:08;13.40;32.90
66190;DHT22;52992;52.084;5.412;2024-03-08T15:15:42;13.50;33.20
66190;DHT22;52992;52.084;5.412;2024-03-08T15:18:10;13.50;32.90
66190;DHT22;52992;52.084;5.412;2024-03-08T15:20:38;13.50;33.70
66190;DHT22;52992;52.084;5.412;2024-03-08T15:23:05;13.40;33.40
66190;DHT22;52992;52.084;5.412;2024-03-08T15:25:32;13.40;33.80
66190;DHT22;52992;52.084;5.412;2024-03-08T15:28:01;13.40;34.10
66190;DHT22;52992;52.084;5.412;2024-03-08T15:30:31;13.30;34.10
66190;DHT22;52992;52.084;5.412;2024-03-08T15:33:00;13.30;34.20
66190;DHT22;52992;52.084;5.412;2024-03-08T15:35:30;13.30;34.30
66190;DHT22;52992;52.084;5.412;2024-03-08T15:37:59;13.30;33.80
66190;DHT22;52992;52.084;5.412;2024-03-08T15:40:27;13.20;33.80
66190;DHT22;52992;52.084;5.412;2024-03-08T15:42:57;13.20;33.50
66190;DHT22;52992;52.084;5.412;2024-03-08T15:45:25;13.10;34.30
66190;DHT22;52992;52.084;5.412;2024-03-08T15:47:58;13.10;34.50
66190;DHT22;52992;52.084;5.412;2024-03-08T15:50:32;13.10;33.90
66190;DHT22;52992;52.084;5.412;2024-03-08T15:53:02;13.00;34.50